Terminal Aerodrome Forecast
Issued by NWS

Home | Current Version | Previous Version | Text Only | Print | Product List | Glossary On
Versions: 1 2 3 4 5 6 7 8 9 10 11 12 13 14 15 16 17 18 19 20 21 22 23 24 25
000
FTUS43 KDLH 241200 AAA
TAFHYR
TAF AMD
KHYR 241242Z 2413/2512 27004KT P6SM OVC025
     FM241400 29004KT P6SM BKN025 OVC100
     FM241900 29004KT 3SM -SN OVC012
     FM250400 06008KT P6SM -SN OVC025
     FM250900 04010KT P6SM SCT025 BKN100=

USA.gov is the U.S. government's official web portal to all federal, state and local government web resources and services.